»·PEaware :: DAL227 KDEN-KLAS

DAL227 :: KDEN-KLAS

FLIGHT INFORMATION

Flight Status: Arrived
Operator:
Delta Air Lines
More flights by this operator :: More flights under this callsign
Pilot: Brian B. (27125)
Aircraft: Cessna 700 Citation Longitude
(C700)
More flights by this aircraft type
Origin: KDEN Denver Intl
United States
Destination: KLAS McCarran Intl
United States
More flights between these airports :: More routes between these airports
Route: BAYLR6 TEHRU HVE GGAPP SITEE4
File this flight plan on PilotEdge
Remarks:
Altitude:
(Current/Filed)
24,000ft
Speed:
(Current/Filed)
290kts
Departed: 03-Jan-21 02:17 PM
Arrived: 03-Jan-21 03:47 PM
Distance/Time
Traveled:
545nm/1:30
Distance/Time
To Go:
Arrived

Flight Plot

Page will automatically refresh every two minutes.

Flight plan parsing failed; only flown route is shown


Map Options




Map Legend


Flown Route
Filed Route
Departure Airport
Arrival Airport
Navaid (VOR, NDB)
Fix

Horizontal Profiles

Position Reports

Time Latitude Longitude Heading Altitude Ground
Speed
03-Jan-21 13:21 39.865636 -104.672328 359 5374ft 0kts
03-Jan-21 13:22 39.865636 -104.672328 359 5374ft 0kts
03-Jan-21 13:23 39.865636 -104.672328 359 5374ft 0kts
03-Jan-21 13:24 39.865636 -104.672328 359 5374ft 0kts
03-Jan-21 13:25 39.865636 -104.672328 359 5374ft 0kts
03-Jan-21 13:26 39.865636 -104.672328 359 5374ft 0kts
03-Jan-21 13:27 39.865636 -104.672328 359 5374ft 0kts
03-Jan-21 13:28 39.865636 -104.672328 359 5374ft 0kts
03-Jan-21 13:29 39.865636 -104.672328 359 5374ft 0kts
03-Jan-21 13:30 39.865636 -104.672328 359 5374ft 0kts
03-Jan-21 13:31 39.865636 -104.672328 359 5374ft 0kts
03-Jan-21 13:32 39.865636 -104.672328 359 5374ft 0kts
03-Jan-21 13:33 39.865636 -104.672328 359 5374ft 0kts
03-Jan-21 13:34 39.865636 -104.672328 359 5374ft 0kts
03-Jan-21 13:35 39.865636 -104.672328 359 5374ft 0kts
03-Jan-21 13:36 39.865636 -104.672328 359 5374ft 0kts
03-Jan-21 13:37 39.865636 -104.672328 359 5374ft 0kts
03-Jan-21 13:38 39.865636 -104.672328 359 5374ft 0kts
03-Jan-21 13:39 39.865636 -104.672328 359 5374ft 0kts
03-Jan-21 13:40 39.865636 -104.672328 359 5374ft 0kts
03-Jan-21 13:41 39.865636 -104.672328 359 5374ft 0kts
03-Jan-21 13:42 39.865636 -104.672328 359 5374ft 0kts
03-Jan-21 13:43 39.865636 -104.672328 359 5374ft 0kts
03-Jan-21 13:45 39.865636 -104.672328 359 5374ft 0kts
03-Jan-21 13:46 39.865636 -104.672328 0 5374ft 0kts
03-Jan-21 13:47 39.865418 -104.672525 73 5374ft 2kts
03-Jan-21 13:48 39.865413 -104.672548 78 5374ft 0kts
03-Jan-21 13:49 39.865413 -104.672548 78 5374ft 0kts
03-Jan-21 13:50 39.865413 -104.672548 78 5374ft 0kts
03-Jan-21 13:51 39.865413 -104.672548 78 5374ft 0kts
03-Jan-21 13:52 39.865413 -104.672548 78 5374ft 0kts
03-Jan-21 13:53 39.865413 -104.672548 78 5374ft 0kts
03-Jan-21 13:54 39.865413 -104.672548 78 5374ft 0kts
03-Jan-21 13:55 39.865413 -104.672548 78 5374ft 0kts
03-Jan-21 13:56 39.865084 -104.672269 218 5378ft 0kts
03-Jan-21 13:57 39.864787 -104.676052 271 5379ft 12kts
03-Jan-21 13:58 39.864828 -104.679953 272 5379ft 8kts
03-Jan-21 13:59 39.864291 -104.682445 269 5373ft 9kts
03-Jan-21 14:00 39.862480 -104.683893 180 5371ft 8kts
03-Jan-21 14:00 39.860465 -104.683915 180 5372ft 10kts
03-Jan-21 14:02 39.856034 -104.683977 180 5373ft 13kts
03-Jan-21 14:03 39.851799 -104.684027 179 5373ft 14kts
03-Jan-21 14:03 39.848551 -104.684061 181 5368ft 14kts
03-Jan-21 14:04 39.844544 -104.684094 178 5362ft 13kts
03-Jan-21 14:05 39.842169 -104.684142 180 5353ft 0kts
03-Jan-21 14:06 39.842169 -104.684142 180 5353ft 0kts
03-Jan-21 14:07 39.842169 -104.684142 180 5353ft 0kts
03-Jan-21 14:08 39.842169 -104.684142 180 5353ft 0kts
03-Jan-21 14:09 39.842169 -104.684142 180 5353ft 0kts
03-Jan-21 14:10 39.842169 -104.684142 180 5353ft 0kts
03-Jan-21 14:11 39.842169 -104.684142 180 5353ft 0kts
03-Jan-21 14:12 39.842169 -104.684142 180 5353ft 0kts
03-Jan-21 14:13 39.842169 -104.684142 180 5353ft 0kts
03-Jan-21 14:14 39.841798 -104.684148 180 5356ft 3kts
03-Jan-21 14:15 39.840629 -104.685043 270 5356ft 12kts
03-Jan-21 14:16 39.840850 -104.725591 273 5503ft 197kts
03-Jan-21 14:17 39.835746 -104.798299 254 6887ft 210kts
03-Jan-21 14:18 39.799017 -104.857624 225 8327ft 219kts
03-Jan-21 14:19 39.771070 -104.925816 253 9836ft 241kts
03-Jan-21 14:20 39.750787 -105.015166 253 11384ft 316kts
03-Jan-21 14:21 39.717590 -105.121839 246 13012ft 322kts
03-Jan-21 14:22 39.681428 -105.230974 248 15178ft 334kts
03-Jan-21 14:23 39.644318 -105.343934 247 17365ft 346kts
03-Jan-21 14:24 39.605910 -105.460719 249 19577ft 365kts
03-Jan-21 14:25 39.564451 -105.584485 249 21759ft 382kts
03-Jan-21 14:26 39.526554 -105.714158 256 23903ft 388kts
03-Jan-21 14:27 39.489376 -105.848905 253 24222ft 402kts
03-Jan-21 14:28 39.451661 -105.985240 254 24132ft 414kts
03-Jan-21 14:29 39.411386 -106.127360 254 24044ft 420kts
03-Jan-21 14:30 39.371722 -106.267962 252 24109ft 422kts
03-Jan-21 14:31 39.331668 -106.410349 252 24023ft 422kts
03-Jan-21 14:32 39.290989 -106.552381 253 24087ft 421kts
03-Jan-21 14:33 39.250219 -106.694368 253 24129ft 422kts
03-Jan-21 14:34 39.219926 -106.838523 259 24201ft 419kts
03-Jan-21 14:35 39.192446 -106.984584 257 24208ft 419kts
03-Jan-21 14:36 39.165009 -107.130014 258 24186ft 418kts
03-Jan-21 14:37 39.137004 -107.274691 260 24189ft 415kts
03-Jan-21 14:38 39.108637 -107.418913 259 24160ft 413kts
03-Jan-21 14:39 39.081012 -107.561224 258 24515ft 411kts
03-Jan-21 14:40 39.053058 -107.703632 259 24579ft 409kts
03-Jan-21 14:41 39.024779 -107.844842 258 24606ft 407kts
03-Jan-21 14:42 38.996795 -107.986018 258 24581ft 406kts
03-Jan-21 14:43 38.968482 -108.126216 259 24404ft 405kts
03-Jan-21 14:44 38.940168 -108.266032 258 24305ft 403kts
03-Jan-21 14:45 38.911888 -108.405088 258 24248ft 402kts
03-Jan-21 14:46 38.883316 -108.543893 258 24218ft 401kts
03-Jan-21 14:47 38.854805 -108.682455 257 24249ft 401kts
03-Jan-21 14:48 38.826014 -108.820597 258 24249ft 400kts
03-Jan-21 14:49 38.797238 -108.958390 257 24250ft 399kts
03-Jan-21 14:50 38.768262 -109.095678 257 24324ft 397kts
03-Jan-21 14:51 38.739175 -109.233317 257 24290ft 399kts
03-Jan-21 14:52 38.709914 -109.370179 257 24284ft 397kts
03-Jan-21 14:53 38.680776 -109.506439 257 24226ft 395kts
03-Jan-21 14:54 38.651406 -109.641968 257 24250ft 395kts
03-Jan-21 14:55 38.621669 -109.779051 257 24262ft 401kts
03-Jan-21 14:56 38.591547 -109.916760 257 24272ft 401kts
03-Jan-21 14:57 38.561398 -110.053823 256 24261ft 400kts
03-Jan-21 14:58 38.531053 -110.191135 256 24263ft 401kts
03-Jan-21 14:59 38.507174 -110.298374 256 24306ft 401kts
03-Jan-21 15:00 38.481894 -110.411025 256 24427ft 394kts
03-Jan-21 15:01 38.451709 -110.545677 256 24442ft 395kts
03-Jan-21 15:02 38.417938 -110.679374 245 24436ft 401kts
03-Jan-21 15:03 38.356924 -110.799472 233 24415ft 408kts
03-Jan-21 15:04 38.287998 -110.913602 236 24398ft 407kts
03-Jan-21 15:05 38.218351 -111.027462 237 24384ft 407kts
03-Jan-21 15:06 38.148706 -111.141419 235 24316ft 408kts
03-Jan-21 15:07 38.079167 -111.255775 235 24353ft 410kts
03-Jan-21 15:08 38.009236 -111.369418 236 24322ft 411kts
03-Jan-21 15:09 37.938736 -111.483797 235 24215ft 412kts
03-Jan-21 15:10 37.868054 -111.598264 236 24190ft 410kts
03-Jan-21 15:11 37.797382 -111.712129 235 24196ft 411kts
03-Jan-21 15:12 37.726595 -111.825990 236 24192ft 412kts
03-Jan-21 15:13 37.655528 -111.939576 235 24200ft 411kts
03-Jan-21 15:14 37.584683 -112.052855 235 24226ft 411kts
03-Jan-21 15:15 37.522917 -112.172581 241 24198ft 407kts
03-Jan-21 15:16 37.463613 -112.294158 244 24207ft 406kts
03-Jan-21 15:17 37.404577 -112.415597 241 24233ft 406kts
03-Jan-21 15:18 37.345989 -112.537112 240 24215ft 406kts
03-Jan-21 15:19 37.287246 -112.657919 242 24239ft 405kts
03-Jan-21 15:20 37.228256 -112.777893 241 24242ft 403kts
03-Jan-21 15:21 37.169622 -112.897849 241 24266ft 401kts
03-Jan-21 15:23 37.110996 -113.016620 241 24230ft 401kts
03-Jan-21 15:24 37.052445 -113.135145 240 24270ft 399kts
03-Jan-21 15:25 36.993981 -113.253106 241 24261ft 398kts
03-Jan-21 15:26 36.935213 -113.370968 240 24270ft 398kts
03-Jan-21 15:27 36.876790 -113.488093 240 24251ft 397kts
03-Jan-21 15:28 36.817897 -113.605354 240 24233ft 396kts
03-Jan-21 15:29 36.759412 -113.721840 240 24206ft 397kts
03-Jan-21 15:30 36.701881 -113.835650 240 19823ft 377kts
03-Jan-21 15:31 36.645948 -113.946091 239 16501ft 373kts
03-Jan-21 15:32 36.591203 -114.053875 239 16245ft 370kts
03-Jan-21 15:33 36.536426 -114.161390 238 15057ft 363kts
03-Jan-21 15:34 36.482925 -114.265950 237 12441ft 353kts
03-Jan-21 15:35 36.430277 -114.368560 237 12276ft 352kts
03-Jan-21 15:36 36.385433 -114.474391 249 12242ft 330kts
03-Jan-21 15:37 36.359366 -114.582737 254 11364ft 328kts
03-Jan-21 15:38 36.338246 -114.683129 256 9852ft 310kts
03-Jan-21 15:38 36.321018 -114.768563 256 8513ft 305kts
03-Jan-21 15:39 36.286459 -114.858417 225 6904ft 270kts
03-Jan-21 15:40 36.234812 -114.923186 230 6261ft 230kts
03-Jan-21 15:42 36.189680 -114.993566 236 6116ft 212kts
03-Jan-21 15:42 36.168622 -115.048186 250 4858ft 210kts
03-Jan-21 15:43 36.151544 -115.104189 242 3230ft 154kts
03-Jan-21 15:44 36.125019 -115.141613 207 2711ft 142kts
03-Jan-21 15:45 36.089935 -115.162048 204 2184ft 103kts
03-Jan-21 15:46 36.084065 -115.166176 233 2183ft 10kts

Navigation Log

Ident Type
Flight plan parsing failed, navigation log unavailable